createdAt,value
2023-03-21T00:02:10.626Z,100261.47
2023-03-21T00:08:35.389Z,100259.03
2023-03-21T00:11:37.894Z,100251.25
2023-03-21T00:14:40.063Z,100251.03
2023-03-21T00:17:44.776Z,100241.44
2023-03-21T00:21:29.333Z,100249.72
2023-03-21T00:24:23.259Z,100238.97
2023-03-21T00:27:56.987Z,100238.25
2023-03-21T00:30:48.366Z,100230.94
2023-03-21T00:33:51.011Z,100228.78
2023-03-21T00:36:53.476Z,100229.38
2023-03-21T00:39:56.133Z,100225.66
2023-03-21T00:42:59.353Z,100229.03
2023-03-21T00:46:01.622Z,100219.31
2023-03-21T00:49:04.278Z,100215.53
2023-03-21T00:52:17.140Z,100218.97
2023-03-21T00:55:22.884Z,100213.47
2023-03-21T00:58:26.178Z,100220.97
2023-03-21T01:01:32.280Z,100215.56
2023-03-21T01:04:34.670Z,100218.75
2023-03-21T01:07:37.185Z,100222.19
2023-03-21T01:10:43.236Z,100217.81
2023-03-21T01:13:53.715Z,100215.94
2023-03-21T01:16:58.730Z,100219.16
2023-03-21T01:20:01.273Z,100213.69
2023-03-21T01:23:03.596Z,100207.44
2023-03-21T01:26:07.066Z,100217.34
2023-03-21T01:29:09.234Z,100213.47
2023-03-21T01:32:13.801Z,100215.72
2023-03-21T01:35:16.477Z,100213.81
2023-03-21T01:38:19.118Z,100214.47
2023-03-21T01:41:41.909Z,100217.94
2023-03-21T01:45:04.496Z,100210.72
2023-03-21T01:48:08.685Z,100225.03
2023-03-21T01:51:12.933Z,100227.84
2023-03-21T01:54:26.986Z,100224.59
2023-03-21T01:57:45.206Z,100229.63
2023-03-21T02:00:52.513Z,100223.97
2023-03-21T02:03:55.455Z,100227.34
2023-03-21T02:07:11.105Z,100227.13
2023-03-21T02:10:16.685Z,100228.38
2023-03-21T02:13:19.849Z,100231.34
2023-03-21T02:16:46.299Z,100224.59
2023-03-21T02:20:14.538Z,100229.03
2023-03-21T02:23:36.290Z,100221.69
2023-03-21T02:27:11.818Z,100225.34
2023-03-21T02:30:39.899Z,100214.09
2023-03-21T02:34:16.625Z,100225.34
2023-03-21T02:37:38.412Z,100221.16
2023-03-21T02:40:53.823Z,100226.28
2023-03-21T02:44:22.893Z,100216.59
2023-03-21T02:47:28.356Z,100230.69
2023-03-21T02:50:51.047Z,100228.38
2023-03-21T02:54:26.507Z,100223.44
2023-03-21T02:57:33.837Z,100221.03
2023-03-21T03:00:44.730Z,100217.78
2023-03-21T03:03:47.986Z,100223.44
2023-03-21T03:07:01.118Z,100229.84
2023-03-21T03:10:11.437Z,100232.47
2023-03-21T03:13:48.027Z,100226.72
2023-03-21T03:17:04.187Z,100229.75
2023-03-21T03:20:39.053Z,100236.69
2023-03-21T03:23:50.788Z,100222.41
2023-03-21T03:27:17.866Z,100226.06
2023-03-21T03:30:23.707Z,100226.31
2023-03-21T03:33:27.861Z,100226.19
2023-03-21T03:36:35.738Z,100229.84
2023-03-21T03:39:46.190Z,100226.59
2023-03-21T03:42:59.011Z,100220.19
2023-03-21T03:46:13.602Z,100223.69
2023-03-21T03:49:23.067Z,100219.97
2023-03-21T03:52:42.071Z,100222.19
2023-03-21T03:55:51.756Z,100223.56
2023-03-21T03:58:56.119Z,100223.75
2023-03-21T04:01:59.738Z,100228.28
2023-03-21T04:05:04.271Z,100229.41
2023-03-21T04:08:06.807Z,100227.94
2023-03-21T04:11:13.429Z,100224.09
2023-03-21T04:14:15.979Z,100227.84
2023-03-21T04:17:19.419Z,100226.19
2023-03-21T04:20:36.190Z,100226.47
2023-03-21T04:23:40.825Z,100226.06
2023-03-21T04:26:43.598Z,100220.94
2023-03-21T04:29:48.570Z,100216.72
2023-03-21T04:32:57.019Z,100224.91
2023-03-21T04:36:00.561Z,100226.75
2023-03-21T04:39:03.280Z,100216.81
2023-03-21T04:42:06.953Z,100221.69
2023-03-21T04:45:09.788Z,100217.84
2023-03-21T04:48:16.807Z,100221.47
2023-03-21T04:51:19.485Z,100219.00
2023-03-21T04:54:22.607Z,100222.22
2023-03-21T04:57:24.856Z,100216.25
2023-03-21T05:00:27.916Z,100221.03
2023-03-21T05:03:34.711Z,100228.75
2023-03-21T05:06:37.518Z,100223.56
2023-03-21T05:09:39.773Z,100220.00
2023-03-21T05:12:42.374Z,100227.44
2023-03-21T05:15:44.709Z,100224.72
2023-03-21T05:18:50.691Z,100240.53
2023-03-21T05:21:53.476Z,100238.13
2023-03-21T05:24:56.740Z,100239.09
2023-03-21T05:28:02.194Z,100233.09
2023-03-21T05:31:06.381Z,100237.59
2023-03-21T05:34:08.914Z,100239.53
2023-03-21T05:37:11.778Z,100248.47
2023-03-21T05:40:15.907Z,100262.66
2023-03-21T05:43:19.225Z,100262.59
2023-03-21T05:46:25.383Z,100270.66
2023-03-21T05:49:28.411Z,100275.19
2023-03-21T05:52:31.471Z,100267.00
2023-03-21T05:55:34.475Z,100266.06
2023-03-21T05:58:37.254Z,100264.50
2023-03-21T06:01:40.252Z,100275.00
2023-03-21T06:04:42.869Z,100279.34
2023-03-21T06:07:45.979Z,100272.34
2023-03-21T06:10:49.020Z,100274.81
2023-03-21T06:13:51.521Z,100264.50
2023-03-21T06:16:57.189Z,100279.03
2023-03-21T06:20:04.943Z,100277.44
2023-03-21T06:23:07.778Z,100274.47
2023-03-21T06:26:11.249Z,100276.22
2023-03-21T06:29:14.135Z,100277.75
2023-03-21T06:32:17.722Z,100272.00
2023-03-21T06:35:21.115Z,100272.88
2023-03-21T06:38:24.404Z,100275.50
2023-03-21T06:41:26.957Z,100272.19
2023-03-21T06:44:30.977Z,100269.09
2023-03-21T06:47:33.820Z,100284.69
2023-03-21T06:50:37.583Z,100281.09
2023-03-21T06:53:41.513Z,100281.63
2023-03-21T06:56:45.700Z,100276.88
2023-03-21T06:59:48.854Z,100281.75
2023-03-21T07:02:51.857Z,100288.19
2023-03-21T07:05:56.713Z,100297.53
2023-03-21T07:08:59.099Z,100291.81
2023-03-21T07:12:01.765Z,100295.34
2023-03-21T07:15:07.669Z,100293.59
2023-03-21T07:18:10.962Z,100297.25
2023-03-21T07:21:14.126Z,100296.06
2023-03-21T07:24:16.749Z,100305.34
2023-03-21T07:27:19.172Z,100300.22
2023-03-21T07:30:21.769Z,100301.19
2023-03-21T07:33:26.002Z,100294.84
2023-03-21T07:36:29.810Z,100289.66
2023-03-21T07:39:33.106Z,100295.13
2023-03-21T07:42:36.591Z,100281.03
2023-03-21T07:45:39.315Z,100283.50
2023-03-21T07:48:42.830Z,100286.31
2023-03-21T07:51:45.325Z,100286.59
2023-03-21T07:54:47.911Z,100284.06
2023-03-21T07:57:51.673Z,100279.03
2023-03-21T08:00:56.566Z,100284.66
2023-03-21T08:03:59.127Z,100277.22
2023-03-21T08:07:01.496Z,100270.63
2023-03-21T08:10:05.622Z,100268.97
2023-03-21T08:13:07.939Z,100268.81
2023-03-21T08:16:10.668Z,100262.94
2023-03-21T08:19:13.012Z,100268.00
2023-03-21T08:22:16.059Z,100274.13
2023-03-21T08:25:21.813Z,100275.78
2023-03-21T08:28:24.938Z,100271.47
2023-03-21T08:31:28.364Z,100258.28
2023-03-21T08:34:30.901Z,100278.38
2023-03-21T08:37:36.540Z,100275.81
2023-03-21T08:40:39.251Z,100268.19
2023-03-21T08:43:41.751Z,100273.50
2023-03-21T08:46:44.611Z,100264.47
2023-03-21T08:49:47.115Z,100264.91
2023-03-21T08:52:49.744Z,100271.37
2023-03-21T08:55:52.009Z,100273.75
2023-03-21T08:58:54.821Z,100269.84
2023-03-21T09:01:57.328Z,100274.34
2023-03-21T09:05:00.034Z,100275.78
2023-03-21T09:08:03.452Z,100273.97
2023-03-21T09:11:06.324Z,100283.84
2023-03-21T09:14:09.030Z,100278.00
2023-03-21T09:17:11.665Z,100277.94
2023-03-21T09:20:18.701Z,100284.16
2023-03-21T09:23:21.727Z,100293.59
2023-03-21T09:26:25.149Z,100276.34
2023-03-21T09:29:27.928Z,100282.34
2023-03-21T09:32:30.520Z,100279.66
2023-03-21T09:35:33.144Z,100288.44
2023-03-21T09:38:37.763Z,100283.53
2023-03-21T09:42:04.670Z,100280.66
2023-03-21T09:45:21.862Z,100286.09
2023-03-21T09:48:50.508Z,100285.38
2023-03-21T09:52:06.802Z,100279.97
2023-03-21T09:55:22.623Z,100279.50
2023-03-21T09:58:38.289Z,100277.72
2023-03-21T10:01:45.540Z,100272.97
2023-03-21T10:04:48.640Z,100267.25
2023-03-21T10:08:08.929Z,100274.19
2023-03-21T10:11:44.276Z,100269.44
2023-03-21T10:14:58.016Z,100274.16
2023-03-21T10:18:04.897Z,100267.94
2023-03-21T10:21:07.334Z,100263.16
2023-03-21T10:24:17.532Z,100263.19
2023-03-21T10:27:20.016Z,100254.94
2023-03-21T10:30:36.979Z,100262.69
2023-03-21T10:33:43.719Z,100257.44
2023-03-21T10:36:46.930Z,100255.00
2023-03-21T10:39:52.175Z,100252.44
2023-03-21T10:43:16.734Z,100248.38
2023-03-21T10:46:21.328Z,100252.78
2023-03-21T10:49:30.135Z,100248.69
2023-03-21T10:52:37.332Z,100240.47
2023-03-21T10:55:42.073Z,100245.38
2023-03-21T10:58:46.982Z,100238.31
2023-03-21T11:01:52.886Z,100256.72
2023-03-21T11:04:55.972Z,100241.84
2023-03-21T11:08:04.870Z,100227.06
2023-03-21T11:11:12.397Z,100218.03
2023-03-21T11:14:34.048Z,100222.94
2023-03-21T11:17:36.299Z,100205.97
2023-03-21T11:20:48.238Z,100210.37
2023-03-21T11:23:52.087Z,100205.78
2023-03-21T11:26:56.986Z,100202.31
2023-03-21T11:30:02.103Z,100210.09
2023-03-21T11:33:06.902Z,100206.19
2023-03-21T11:36:18.892Z,100196.03
2023-03-21T11:39:39.994Z,100191.78
2023-03-21T11:42:44.604Z,100194.47
2023-03-21T11:45:58.712Z,100189.66
2023-03-21T11:49:03.817Z,100188.41
2023-03-21T11:52:38.728Z,100184.03
2023-03-21T11:55:55.408Z,100179.53
2023-03-21T11:59:16.439Z,100176.28
2023-03-21T12:02:31.266Z,100169.94
2023-03-21T12:05:48.053Z,100160.06
2023-03-21T12:09:15.648Z,100170.38
2023-03-21T12:12:43.615Z,100160.16
2023-03-21T12:16:11.086Z,100159.97
2023-03-21T12:19:24.834Z,100146.16
2023-03-21T12:22:52.918Z,100147.38
2023-03-21T12:26:19.977Z,100148.41
2023-03-21T12:29:36.968Z,100146.13
2023-03-21T12:33:02.485Z,100143.62
2023-03-21T12:36:11.237Z,100137.41
2023-03-21T12:39:16.862Z,100141.28
2023-03-21T12:43:00.815Z,100142.28
2023-03-21T12:46:11.403Z,100138.44
2023-03-21T12:49:21.291Z,100138.44
2023-03-21T12:52:41.591Z,100134.69
2023-03-21T12:55:44.692Z,100139.19
2023-03-21T12:59:06.322Z,100140.88
2023-03-21T13:02:37.696Z,100134.44
2023-03-21T13:05:55.221Z,100124.41
2023-03-21T13:09:17.939Z,100124.41
2023-03-21T13:12:45.629Z,100120.12
2023-03-21T13:16:24.046Z,100109.38
2023-03-21T13:19:48.669Z,100101.09
2023-03-21T13:22:51.394Z,100094.84
2023-03-21T13:25:57.306Z,100096.97
2023-03-21T13:29:02.774Z,100097.72
2023-03-21T13:32:15.298Z,100107.91
2023-03-21T13:35:34.711Z,100103.50
2023-03-21T13:38:40.181Z,100098.56
2023-03-21T13:41:47.202Z,100094.94
2023-03-21T13:44:56.590Z,100099.03
2023-03-21T13:48:03.491Z,100086.47
2023-03-21T13:51:06.680Z,100096.44
2023-03-21T13:54:08.955Z,100090.75
2023-03-21T13:57:35.186Z,100091.59
2023-03-21T14:00:39.865Z,100090.34
2023-03-21T14:03:46.613Z,100085.00
2023-03-21T14:06:56.369Z,100075.19
2023-03-21T14:10:05.032Z,100082.50
2023-03-21T14:13:16.239Z,100083.09
2023-03-21T14:16:22.013Z,100062.72
2023-03-21T14:19:32.376Z,100069.31
2023-03-21T14:22:35.754Z,100065.72
2023-03-21T14:25:46.851Z,100054.34
2023-03-21T14:28:53.043Z,100052.34
2023-03-21T14:31:56.514Z,100040.84
2023-03-21T14:35:01.116Z,100047.94
2023-03-21T14:38:08.858Z,100048.62
2023-03-21T14:41:26.097Z,100043.91
2023-03-21T14:44:58.116Z,100052.34
2023-03-21T14:48:06.692Z,100037.03
2023-03-21T14:51:12.388Z,100033.78
2023-03-21T14:54:17.786Z,100038.38
2023-03-21T14:57:29.294Z,100043.25
2023-03-21T15:00:32.907Z,100044.41
2023-03-21T15:03:36.641Z,100047.34
2023-03-21T15:06:50.132Z,100044.47
2023-03-21T15:09:58.269Z,100044.16
2023-03-21T15:13:02.261Z,100042.97
2023-03-21T15:16:05.318Z,100041.72
2023-03-21T15:19:14.753Z,100033.25
2023-03-21T15:22:19.890Z,100038.91
2023-03-21T15:25:27.923Z,100029.41
2023-03-21T15:28:30.677Z,100026.72
2023-03-21T15:31:40.281Z,100031.84
2023-03-21T15:34:42.712Z,100027.78
2023-03-21T15:37:54.467Z,100031.22
2023-03-21T15:41:20.958Z,100034.44
2023-03-21T15:44:23.682Z,100025.44
2023-03-21T15:47:55.655Z,100042.38
2023-03-21T15:51:07.427Z,100032.09
2023-03-21T15:54:17.580Z,100036.31
2023-03-21T15:57:32.667Z,100035.81
2023-03-21T16:00:49.910Z,100033.31
2023-03-21T16:03:58.760Z,100032.75
2023-03-21T16:07:04.592Z,100034.84
2023-03-21T16:10:26.793Z,100021.88
2023-03-21T16:13:29.021Z,100035.53
2023-03-21T16:16:31.801Z,100026.91
2023-03-21T16:19:34.308Z,100027.88
2023-03-21T16:22:36.972Z,100037.88
2023-03-21T16:25:40.143Z,100040.97
2023-03-21T16:28:43.484Z,100033.44
2023-03-21T16:31:48.192Z,100034.41
2023-03-21T16:34:53.612Z,100043.84
2023-03-21T16:37:55.877Z,100042.72
2023-03-21T16:40:58.425Z,100041.44
2023-03-21T16:44:02.128Z,100048.06
2023-03-21T16:47:12.069Z,100044.81
2023-03-21T16:50:20.142Z,100053.41
2023-03-21T16:53:22.675Z,100051.69
2023-03-21T16:56:30.153Z,100062.31
2023-03-21T16:59:32.719Z,100069.31
2023-03-21T17:02:34.853Z,100069.72
2023-03-21T17:05:37.282Z,100068.97
2023-03-21T17:08:39.446Z,100068.13
2023-03-21T17:11:42.560Z,100080.66
2023-03-21T17:14:45.305Z,100073.22
2023-03-21T17:17:51.998Z,100083.94
2023-03-21T17:20:54.221Z,100080.91
2023-03-21T17:23:56.688Z,100084.87
2023-03-21T17:27:01.309Z,100079.47
2023-03-21T17:30:11.802Z,100080.19
2023-03-21T17:33:15.312Z,100074.91
2023-03-21T17:36:21.308Z,100075.66
2023-03-21T17:39:26.601Z,100075.56
2023-03-21T17:42:29.111Z,100077.31
2023-03-21T17:45:31.390Z,100072.44
2023-03-21T17:48:33.880Z,100075.91
2023-03-21T17:51:36.143Z,100074.00
2023-03-21T17:54:38.630Z,100073.28
2023-03-21T17:57:40.995Z,100080.59
2023-03-21T18:00:46.370Z,100089.56
2023-03-21T18:03:50.069Z,100091.22
2023-03-21T18:06:53.896Z,100096.97
2023-03-21T18:09:57.883Z,100094.50
2023-03-21T18:13:00.359Z,100100.47
2023-03-21T18:16:02.861Z,100103.12
2023-03-21T18:19:05.041Z,100103.22
2023-03-21T18:22:07.498Z,100100.72
2023-03-21T18:25:10.637Z,100103.84
2023-03-21T18:28:13.777Z,100098.81
2023-03-21T18:31:20.298Z,100097.97
2023-03-21T18:34:23.239Z,100102.75
2023-03-21T18:37:25.751Z,100106.47
2023-03-21T18:40:28.943Z,100106.09
2023-03-21T18:46:53.654Z,100104.78
2023-03-21T18:50:14.574Z,100116.62
2023-03-21T18:53:17.721Z,100109.34
2023-03-21T18:57:13.296Z,100112.09
2023-03-21T18:59:42.513Z,100109.47
2023-03-21T19:02:48.096Z,100111.37
2023-03-21T19:05:51.240Z,100114.97
2023-03-21T19:08:53.660Z,100105.84
2023-03-21T19:11:57.233Z,100105.25
2023-03-21T19:14:59.483Z,100118.44
2023-03-21T19:21:25.649Z,100111.84
2023-03-21T19:24:29.144Z,100115.78
2023-03-21T19:27:33.863Z,100113.06
2023-03-21T19:30:36.790Z,100121.19
2023-03-21T19:33:39.285Z,100118.91
2023-03-21T19:36:45.807Z,100113.75
2023-03-21T19:39:51.664Z,100116.53
2023-03-21T19:42:54.102Z,100116.88
2023-03-21T19:46:00.815Z,100119.75
2023-03-21T19:49:06.639Z,100127.53
2023-03-21T19:52:09.290Z,100138.41
2023-03-21T19:55:14.752Z,100137.22
2023-03-21T19:58:21.305Z,100134.59
2023-03-21T20:01:25.565Z,100131.59
2023-03-21T20:04:28.176Z,100135.69
2023-03-21T20:07:32.719Z,100139.88
2023-03-21T20:10:35.612Z,100138.41
2023-03-21T20:13:38.742Z,100142.84
2023-03-21T20:16:43.570Z,100146.06
2023-03-21T20:19:46.254Z,100142.13
2023-03-21T20:23:07.925Z,100140.47
2023-03-21T20:26:12.924Z,100148.38
2023-03-21T20:32:43.724Z,100148.34
2023-03-21T20:36:29.502Z,100154.34
2023-03-21T20:39:08.583Z,100154.69
2023-03-21T20:42:11.134Z,100156.59
2023-03-21T20:45:16.173Z,100155.53
2023-03-21T20:48:18.711Z,100158.25
2023-03-21T20:54:43.929Z,100155.75
2023-03-21T20:57:48.622Z,100164.72
2023-03-21T21:00:51.697Z,100158.63
2023-03-21T21:03:57.483Z,100160.06
2023-03-21T21:07:00.152Z,100166.34
2023-03-21T21:10:03.481Z,100162.63
2023-03-21T21:13:07.737Z,100171.31
2023-03-21T21:16:11.576Z,100169.28
2023-03-21T21:19:15.042Z,100175.28
2023-03-21T21:22:17.600Z,100177.78
2023-03-21T21:25:20.255Z,100174.56
2023-03-21T21:28:30.221Z,100178.66
2023-03-21T21:31:34.744Z,100173.44
2023-03-21T21:34:37.439Z,100175.13
2023-03-21T21:37:41.798Z,100186.19
2023-03-21T21:40:48.794Z,100180.53
2023-03-21T21:43:52.072Z,100182.63
2023-03-21T21:46:54.341Z,100191.66
2023-03-21T21:49:56.881Z,100189.31
2023-03-21T21:53:03.758Z,100197.53
2023-03-21T21:56:08.980Z,100197.06
2023-03-21T21:59:11.165Z,100195.94
2023-03-21T22:02:16.894Z,100196.56
2023-03-21T22:05:20.895Z,100196.44
2023-03-21T22:08:23.069Z,100196.16
2023-03-21T22:11:25.548Z,100198.88
2023-03-21T22:14:27.758Z,100211.31
2023-03-21T22:17:30.669Z,100205.88
2023-03-21T22:20:33.879Z,100221.09
2023-03-21T22:23:36.528Z,100233.53
2023-03-21T22:26:39.667Z,100232.69
2023-03-21T22:29:42.460Z,100233.50
2023-03-21T22:32:51.497Z,100243.06
2023-03-21T22:35:59.156Z,100235.31
2023-03-21T22:39:01.367Z,100241.16
2023-03-21T22:42:04.912Z,100240.84
2023-03-21T22:45:14.702Z,100245.78
2023-03-21T22:48:17.333Z,100239.38
2023-03-21T22:51:19.532Z,100229.50
2023-03-21T22:54:22.100Z,100230.97
2023-03-21T22:57:24.352Z,100234.88
2023-03-21T23:00:26.978Z,100230.06
2023-03-21T23:03:29.228Z,100235.81
2023-03-21T23:06:32.607Z,100231.62
2023-03-21T23:09:34.849Z,100223.84
2023-03-21T23:12:37.770Z,100224.47
2023-03-21T23:15:40.017Z,100223.06
2023-03-21T23:18:43.052Z,100223.06
2023-03-21T23:21:46.264Z,100217.50
2023-03-21T23:24:49.041Z,100216.50
2023-03-21T23:27:51.270Z,100214.09
2023-03-21T23:30:53.787Z,100224.22
2023-03-21T23:33:58.553Z,100221.50
2023-03-21T23:37:01.004Z,100218.97
2023-03-21T23:40:06.319Z,100219.09
2023-03-21T23:43:08.872Z,100217.56
2023-03-21T23:46:12.782Z,100223.75
2023-03-21T23:49:15.774Z,100231.25
2023-03-21T23:52:18.020Z,100230.06
2023-03-21T23:55:20.531Z,100225.97
2023-03-21T23:58:23.765Z,100227.19
